Hovedside
METAR-TAF:

METAR-TAF

Lufthavner :

Dala lufthavn

Borlänge, Sverige

breddegrad: 60-26N, lengdegrad: 015-31E, høyde over havet: 145 m

Gjeldene værobservasjon

Denne rapporten ble laget for 32 minutter siden, klokken 09:20 UTC
Vind 4 kt fra Nord-nordvest
Temperatur -5°C
Luftfuktighet 100%
Trykk 1034 hPa
Sikt 10 km eller mer
Overskyet i en høyde av 2000 ft

METAR: ESSD 130920Z 33004KT 9999 OVC020 M05/M05 Q1034

Tid: 10:52 (09:52 UTC)

Varsel

Denne rapporten ble laget for 1 time og 22 minutter siden, klokken 08:30 UTC
Varsel gyldig fra 13. klokken 09 UTC til 13. klokken 16 UTC
Vind 6 kt fra Nordvest
Sikt 10 km eller mer
Brutte skyer i en høyde av 2000 ft
Sannsynlighet 40%
fra 13. klokken 09 UTC til 13. klokken 11 UTC
Brutte skyer i en høyde av 800 ft

TAF: ESSD 130830Z 1309/1316 32006KT 9999 BKN020 PROB40 1309/1311 BKN008

Værobservasjoner og værvarsel for over 4000 flyplasser (METAR- og TAF-rapporter).

Tilgjengelige stasjoner er representert av de røde og gule prikkene på kartet.

Hold musepekeren over prikken for å se navnet på stasjonen.

Klikk så for å se værobservasjoner og -varsler.

For å forandre kartet kan du klikke på den grønne knappen med svart kryss for å zoome inn, på den grønne knappen med strek for å zoome ut, eller på de grønne pilene for å se tilstøtende kart.


METAR-TAF: